Douglas, North Dakota
Current Conditions -  °F | °C
As of 4:12 AM on Sunday 25 Jan 2015 (Local Time) from KMOT Reporting Station
Haze Haze  
Wind Chill: -6°   Ceiling: 800
Heat Index: -3°   Visibility: 1.7mi
Dew Point: -4°   Wind: 6mph
Humidity: 92%   Direction: 340°NNW
Pressure: 29.93"   Gusts: NA
Location:  47.86°N, 101.5°W
Report Text: KMOT 251012Z AUTO 34005KT 1 3/4SM BR FEW003 OVC008 M03/M04 A2993 RMK AO2 I1000 T10281039
Loading
Personal Weather Stations






























Interactive Weather Map New forecast layout! Learn more

10-Day Weather Forecast

Advertisements
Track Severe Weather on mobile